Time;durP1;ratioP1;P1;durP2;ratioP2;P2;SDS_P1;SDS_P2;PMS_P1;PMS_P2;Temp;Humidity;BMP_temperature;BMP_pressure;BME280_temperature;BME280_humidity;BME280_pressure;Samples;Min_cycle;Max_cycle;Signal;HPM_P1;HPM_P2
2023/01/12 00:00:10;;;;;;;2.97;1.08;;;;;;;4.08;100.00;96252.22;1026635;28;20041;-71
2023/01/12 00:00:41;;;;;;;3.40;0.88;;;;;;;4.03;100.00;96249.47;1026752;28;20328;-69
2023/01/12 00:01:11;;;;;;;3.53;0.73;;;;;;;4.01;100.00;96246.28;1030994;28;20034;-69
2023/01/12 00:01:42;;;;;;;2.15;0.90;;;;;;;3.99;100.00;96243.91;1026917;28;20027;-72
2023/01/12 00:02:17;;;;;;;2.15;0.82;;;;;;;3.88;100.00;96244.53;1032278;28;20129;-74
2023/01/12 00:03:08;;;;;;;3.17;0.90;;;;;;;3.87;100.00;96245.56;1026759;28;20026;-69
2023/01/12 00:03:38;;;;;;;1.13;0.80;;;;;;;3.86;100.00;96256.94;1022018;28;20287;-73
2023/01/12 00:04:11;;;;;;;3.90;1.95;;;;;;;3.82;100.00;96260.94;1029785;28;20026;-70
2023/01/12 00:04:41;;;;;;;4.28;0.90;;;;;;;3.77;100.00;96247.78;1029547;28;20026;-69
2023/01/12 00:05:14;;;;;;;2.15;0.90;;;;;;;3.85;100.00;96257.94;1029844;28;20270;-68
2023/01/12 00:05:44;;;;;;;4.22;0.95;;;;;;;3.87;100.00;96265.53;1030048;28;20026;-72
2023/01/12 00:06:15;;;;;;;2.05;0.80;;;;;;;3.83;100.00;96254.75;1030920;28;20377;-69
2023/01/12 00:06:45;;;;;;;5.72;1.02;;;;;;;3.75;100.00;96252.38;1031670;28;20031;-70
2023/01/12 00:07:16;;;;;;;2.25;0.95;;;;;;;3.81;100.00;96259.34;1032086;28;20034;-69
2023/01/12 00:07:47;;;;;;;2.45;1.15;;;;;;;3.82;100.00;96252.34;1027255;28;20590;-70
2023/01/12 00:08:17;;;;;;;2.55;1.88;;;;;;;3.87;100.00;96255.16;1022776;28;20270;-69
2023/01/12 00:08:48;;;;;;;1.90;0.85;;;;;;;3.82;100.00;96249.75;1022945;28;20406;-71
2023/01/12 00:09:19;;;;;;;1.48;0.90;;;;;;;3.91;100.00;96262.31;1028856;28;20034;-70
2023/01/12 00:09:49;;;;;;;1.05;0.80;;;;;;;3.88;100.00;96257.53;1030846;28;20277;-68
2023/01/12 00:10:20;;;;;;;5.68;1.20;;;;;;;3.86;100.00;96262.13;1034471;28;20030;-69
2023/01/12 00:10:54;;;;;;;1.48;0.90;;;;;;;3.80;100.00;96264.75;1033030;28;20093;-72
2023/01/12 00:11:25;;;;;;;1.95;1.02;;;;;;;3.81;100.00;96261.94;1035021;28;20041;-69
2023/01/12 00:11:55;;;;;;;2.47;1.20;;;;;;;3.78;100.00;96257.16;1038703;28;20295;-71
2023/01/12 00:12:26;;;;;;;2.80;1.10;;;;;;;3.74;100.00;96254.19;1040291;28;20017;-70
2023/01/12 00:12:57;;;;;;;3.75;1.00;;;;;;;3.85;100.00;96257.94;1030845;28;20014;-72
2023/01/12 00:13:28;;;;;;;0.98;0.80;;;;;;;3.78;100.00;96254.56;1030901;28;20018;-69
2023/01/12 00:13:59;;;;;;;3.58;1.10;;;;;;;3.73;100.00;96254.41;1022591;29;20106;-72
2023/01/12 00:14:29;;;;;;;4.13;1.40;;;;;;;3.75;100.00;96254.97;1030477;28;20280;-69
2023/01/12 00:14:59;;;;;;;3.35;0.90;;;;;;;3.86;100.00;96258.75;1026861;28;20023;-70
2023/01/12 00:16:33;;;;;;;2.22;0.80;;;;;;;3.90;100.00;96259.94;1022157;28;20024;-68
2023/01/12 00:16:39;;;;;;;1.10;0.68;;;;;;;3.80;100.00;96255.19;1026309;28;20026;-70
2023/01/12 00:17:13;;;;;;;0.75;0.68;;;;;;;3.77;100.00;96251.19;1027854;28;20266;-70
2023/01/12 00:17:43;;;;;;;4.53;1.10;;;;;;;3.79;100.00;96256.19;1022106;29;20792;-69
2023/01/12 00:18:14;;;;;;;1.40;0.80;;;;;;;3.78;100.00;96257.16;1022737;29;20263;-68
2023/01/12 00:18:44;;;;;;;3.08;1.00;;;;;;;3.77;100.00;96250.41;1024735;28;20718;-68
2023/01/12 00:19:19;;;;;;;5.97;1.52;;;;;;;3.78;100.00;96251.97;1025199;28;20019;-70
2023/01/12 00:19:50;;;;;;;2.83;1.30;;;;;;;3.68;100.00;96242.03;1023482;28;20468;-70
2023/01/12 00:20:20;;;;;;;2.25;1.15;;;;;;;3.68;100.00;96247.22;1022716;29;20271;-70
2023/01/12 00:20:51;;;;;;;1.42;1.02;;;;;;;3.60;100.00;96244.88;1020925;28;20598;-72
2023/01/12 00:21:21;;;;;;;3.10;0.93;;;;;;;3.64;100.00;96247.84;1023719;28;20020;-69
2023/01/12 00:22:11;;;;;;;2.15;1.20;;;;;;;3.65;100.00;96246.84;1030941;28;20025;-70
2023/01/12 00:22:42;;;;;;;6.22;1.55;;;;;;;3.69;100.00;96245.41;1032509;28;20125;-68
2023/01/12 00:23:12;;;;;;;3.05;0.95;;;;;;;3.64;100.00;96245.25;1033004;28;20338;-69
2023/01/12 00:23:43;;;;;;;2.72;1.17;;;;;;;3.60;100.00;96244.88;1030353;28;20031;-71
2023/01/12 00:24:16;;;;;;;1.98;1.30;;;;;;;3.57;100.00;96239.31;1031260;28;20010;-69
2023/01/12 00:24:48;;;;;;;1.60;0.95;;;;;;;3.63;100.00;96241.09;1031554;28;20034;-71
2023/01/12 00:25:18;;;;;;;4.05;1.20;;;;;;;3.68;100.00;96238.66;1030758;28;20266;-70
2023/01/12 00:25:50;;;;;;;3.45;1.00;;;;;;;3.73;100.00;96236.25;1030924;28;20273;-72
2023/01/12 00:26:20;;;;;;;2.30;1.20;;;;;;;3.73;100.00;96244.03;1032343;28;20030;-70
2023/01/12 00:26:51;;;;;;;1.73;1.25;;;;;;;3.68;100.00;96241.25;1022757;28;20325;-70
2023/01/12 00:27:21;;;;;;;3.08;1.17;;;;;;;3.67;100.00;96239.66;1022787;29;20024;-69
2023/01/12 00:27:52;;;;;;;2.80;1.42;;;;;;;3.74;100.00;96235.22;1024559;28;20015;-68
2023/01/12 00:28:22;;;;;;;3.20;1.17;;;;;;;3.77;100.00;96234.81;1022968;28;20637;-71
2023/01/12 00:28:53;;;;;;;2.13;1.45;;;;;;;3.73;100.00;96238.84;1026730;28;20018;-70
2023/01/12 00:29:24;;;;;;;3.45;1.25;;;;;;;3.65;100.00;96237.25;1033687;28;20022;-70
2023/01/12 00:29:54;;;;;;;4.40;1.38;;;;;;;3.66;100.00;96232.88;1027415;28;20109;-69
2023/01/12 00:30:24;;;;;;;4.35;1.30;;;;;;;3.65;100.00;96236.47;1030772;28;20074;-68
2023/01/12 00:31:02;;;;;;;1.88;1.38;;;;;;;3.58;100.00;96225.31;1030822;28;20034;-75
2023/01/12 00:31:32;;;;;;;3.47;1.60;;;;;;;3.69;100.00;96238.47;1025397;28;20493;-68
2023/01/12 00:32:04;;;;;;;2.25;1.20;;;;;;;3.72;100.00;96237.22;1031688;28;20262;-71
2023/01/12 00:32:34;;;;;;;4.28;1.42;;;;;;;3.69;100.00;96240.22;1030913;28;20030;-68
2023/01/12 00:33:05;;;;;;;1.52;1.13;;;;;;;3.70;100.00;96237.44;1029247;28;20266;-69
2023/01/12 00:33:36;;;;;;;7.78;1.63;;;;;;;3.64;100.00;96229.69;1032539;28;20033;-72
2023/01/12 00:34:07;;;;;;;3.22;1.33;;;;;;;3.60;100.00;96231.09;1031244;28;20035;-68
2023/01/12 00:34:37;;;;;;;2.80;1.30;;;;;;;3.59;100.00;96238.09;1030657;28;20275;-70
2023/01/12 00:35:08;;;;;;;6.20;1.38;;;;;;;3.64;100.00;96234.88;1021907;28;20031;-69
2023/01/12 00:35:38;;;;;;;1.98;1.20;;;;;;;3.64;100.00;96240.06;1018498;28;20454;-69
2023/01/12 00:36:11;;;;;;;4.63;1.30;;;;;;;3.65;100.00;96231.28;1026757;28;20027;-73
2023/01/12 00:36:42;;;;;;;2.63;1.25;;;;;;;3.64;100.00;96238.25;1031198;28;20037;-70
2023/01/12 00:37:13;;;;;;;2.45;1.65;;;;;;;3.62;100.00;96231.69;1034307;28;20272;-72
2023/01/12 00:37:43;;;;;;;4.80;1.50;;;;;;;3.73;100.00;96244.03;1030614;28;20721;-70
2023/01/12 00:38:14;;;;;;;1.80;1.45;;;;;;;3.78;100.00;96241.59;1031100;28;20034;-70
2023/01/12 00:38:44;;;;;;;2.42;1.27;;;;;;;3.76;100.00;96243.63;1034447;28;20084;-69
2023/01/12 00:39:15;;;;;;;4.80;1.42;;;;;;;3.70;100.00;96232.25;1035055;28;20057;-70
2023/01/12 00:39:46;;;;;;;2.88;1.30;;;;;;;3.66;100.00;96232.88;1030647;28;20076;-70
2023/01/12 00:40:16;;;;;;;1.25;1.15;;;;;;;3.66;100.00;96238.88;1030447;28;20029;-70
2023/01/12 00:40:47;;;;;;;5.82;1.90;;;;;;;3.70;100.00;96244.44;1026766;28;20035;-69
2023/01/12 00:45:23;;;;;;;2.20;1.20;;;;;;;3.68;100.00;96246.44;1035274;28;20269;-70
2023/01/12 00:45:54;;;;;;;3.50;1.52;;;;;;;3.63;100.00;96243.66;1024928;28;20305;-69
2023/01/12 00:46:31;;;;;;;5.15;1.55;;;;;;;3.63;100.00;96248.88;1022830;29;20023;-73
2023/01/12 00:47:01;;;;;;;10.50;1.42;;;;;;;3.65;100.00;96246.84;1022543;29;20027;-71
2023/01/12 00:47:32;;;;;;;4.65;1.50;;;;;;;3.70;100.00;96247.03;1030651;28;20273;-70
2023/01/12 00:48:02;;;;;;;5.10;1.60;;;;;;;3.67;100.00;96247.44;1030632;28;20081;-70
2023/01/12 00:48:33;;;;;;;3.20;1.80;;;;;;;3.71;100.00;96236.44;1026500;28;20444;-68
2023/01/12 00:49:04;;;;;;;3.65;1.25;;;;;;;3.80;100.00;96244.78;1034044;28;20026;-70
2023/01/12 00:49:35;;;;;;;4.93;1.45;;;;;;;3.72;100.00;96242.41;1030444;28;20027;-68
2023/01/12 00:50:06;;;;;;;8.30;1.80;;;;;;;3.73;100.00;96242.22;1026700;28;20791;-71
2023/01/12 00:50:36;;;;;;;7.72;1.90;;;;;;;3.69;100.00;96237.63;1018759;29;20040;-69
2023/01/12 00:51:07;;;;;;;1.80;1.30;;;;;;;3.73;100.00;96249.22;1019014;29;20040;-68
2023/01/12 00:51:37;;;;;;;2.85;1.35;;;;;;;3.76;100.00;96244.41;1022868;28;20367;-70
2023/01/12 00:52:10;;;;;;;3.33;1.20;;;;;;;3.72;100.00;96248.44;1026880;28;20106;-71
2023/01/12 00:52:41;;;;;;;4.82;1.55;;;;;;;3.81;100.00;96243.78;1026959;28;20042;-69
2023/01/12 00:53:12;;;;;;;6.63;1.63;;;;;;;3.74;100.00;96236.03;1030959;28;20297;-70
2023/01/12 00:53:42;;;;;;;4.10;1.70;;;;;;;3.82;100.00;96242.75;1026470;28;20046;-69
2023/01/12 00:54:13;;;;;;;3.63;1.80;;;;;;;3.80;100.00;96244.78;1022863;28;20469;-68
2023/01/12 00:54:43;;;;;;;4.13;1.67;;;;;;;3.79;100.00;96238.00;1022595;28;20027;-69
2023/01/12 00:55:14;;;;;;;2.75;1.67;;;;;;;3.72;100.00;96237.22;1018475;28;20034;-71
2023/01/12 00:55:45;;;;;;;3.20;1.38;;;;;;;3.69;100.00;96242.81;1021706;28;20034;-69
2023/01/12 00:56:16;;;;;;;2.55;1.20;;;;;;;3.68;100.00;96236.06;1022400;28;20106;-70
2023/01/12 00:56:46;;;;;;;3.05;1.50;;;;;;;3.77;100.00;96234.81;1018479;29;20288;-70
2023/01/12 00:57:18;;;;;;;3.53;2.28;;;;;;;3.79;100.00;96240.63;1019586;28;20043;-70
2023/01/12 00:57:48;;;;;;;3.20;1.50;;;;;;;3.76;100.00;96239.22;1018562;29;20043;-70
2023/01/12 00:58:19;;;;;;;2.88;1.80;;;;;;;3.76;100.00;96249.59;1023034;28;20274;-70
2023/01/12 00:58:49;;;;;;;5.45;1.92;;;;;;;3.77;100.00;96245.19;1022996;28;20050;-70
2023/01/12 00:59:19;;;;;;;2.85;1.35;;;;;;;3.76;100.00;96246.22;1026518;28;20129;-68
2023/01/12 00:59:53;;;;;;;2.75;1.45;;;;;;;3.80;100.00;96252.56;1022721;28;20038;-70
2023/01/12 01:00:24;;;;;;;3.95;1.60;;;;;;;3.80;100.00;96254.38;1026464;28;20187;-70
2023/01/12 01:01:02;;;;;;;4.38;1.55;;;;;;;3.77;100.00;96246.00;1022843;28;20290;-69
2023/01/12 01:01:33;;;;;;;8.18;1.80;;;;;;;3.71;100.00;96246.03;1025628;28;20035;-68
2023/01/12 01:02:04;;;;;;;3.63;1.60;;;;;;;3.67;100.00;96250.81;1026202;28;20281;-69
2023/01/12 01:02:34;;;;;;;4.10;1.63;;;;;;;3.73;100.00;96244.81;1025436;28;20063;-71
2023/01/12 01:03:05;;;;;;;4.63;2.20;;;;;;;3.75;100.00;96252.38;1018665;29;20271;-68
2023/01/12 01:03:35;;;;;;;3.03;1.50;;;;;;;3.69;100.00;96248.84;1018732;29;20032;-71
2023/01/12 01:04:05;;;;;;;6.22;1.65;;;;;;;3.69;100.00;96242.81;1019106;29;20040;-68
2023/01/12 01:04:36;;;;;;;3.40;1.55;;;;;;;3.67;100.00;96239.66;1018732;28;20059;-71
2023/01/12 01:05:07;;;;;;;5.30;1.95;;;;;;;3.69;100.00;96240.22;1027042;28;20117;-68
2023/01/12 01:05:37;;;;;;;4.80;1.48;;;;;;;3.64;100.00;96245.25;1025997;28;20065;-69
2023/01/12 01:06:08;;;;;;;5.07;1.73;;;;;;;3.62;100.00;96239.47;1030461;28;20464;-71
2023/01/12 01:06:39;;;;;;;3.53;1.33;;;;;;;3.58;100.00;96241.69;1026855;28;20045;-69
2023/01/12 01:07:09;;;;;;;3.33;1.55;;;;;;;3.60;100.00;96238.91;1022663;28;20035;-70
2023/01/12 01:07:40;;;;;;;1.75;1.30;;;;;;;3.68;100.00;96246.44;1026301;28;20031;-69
2023/01/12 01:08:11;;;;;;;2.70;1.63;;;;;;;3.67;100.00;96255.22;1027026;28;20404;-72
2023/01/12 01:08:41;;;;;;;3.67;1.52;;;;;;;3.58;100.00;96253.84;1026736;28;20035;-69
2023/01/12 01:09:12;;;;;;;3.85;1.80;;;;;;;3.65;100.00;96258.00;1025601;28;20270;-71
2023/01/12 01:09:43;;;;;;;5.35;1.52;;;;;;;3.77;100.00;96260.78;1022637;28;20078;-68
2023/01/12 01:10:14;;;;;;;2.50;1.40;;;;;;;3.78;100.00;96257.97;1026552;28;20137;-69
2023/01/12 01:10:45;;;;;;;2.15;1.65;;;;;;;3.74;100.00;96261.19;1026959;28;20571;-72
2023/01/12 01:11:16;;;;;;;3.53;1.75;;;;;;;3.72;100.00;96257.97;1030569;28;20034;-70
2023/01/12 01:11:46;;;;;;;3.78;1.52;;;;;;;3.71;100.00;96262.38;1026648;28;20826;-70
2023/01/12 01:12:17;;;;;;;5.82;1.73;;;;;;;3.66;100.00;96251.06;1022679;28;20035;-71
2023/01/12 01:12:47;;;;;;;5.80;1.65;;;;;;;3.70;100.00;96254.81;1018020;29;20112;-69
2023/01/12 01:13:18;;;;;;;6.70;1.75;;;;;;;3.71;100.00;96249.41;1018829;29;20027;-70
2023/01/12 01:13:48;;;;;;;7.00;1.38;;;;;;;3.77;100.00;96253.00;1022811;28;20031;-70
2023/01/12 01:14:19;;;;;;;3.38;1.40;;;;;;;3.74;100.00;96254.19;1023810;28;20092;-71
2023/01/12 01:14:52;;;;;;;3.95;2.33;;;;;;;3.69;100.00;96242.81;1023999;28;20058;-72
2023/01/12 01:15:22;;;;;;;7.05;1.55;;;;;;;3.66;100.00;96251.06;1017377;28;21007;-70
2023/01/12 01:15:53;;;;;;;4.43;1.60;;;;;;;3.74;100.00;96256.00;1025126;28;20317;-67
2023/01/12 01:16:23;;;;;;;3.92;1.55;;;;;;;3.69;100.00;96245.41;1022189;28;20031;-69
2023/01/12 01:16:54;;;;;;;1.70;1.30;;;;;;;3.65;100.00;96255.41;1022788;28;20071;-70
2023/01/12 01:17:24;;;;;;;4.00;1.45;;;;;;;3.59;100.00;96252.84;1026792;28;20499;-69
2023/01/12 01:17:55;;;;;;;3.53;1.27;;;;;;;3.59;100.00;96261.44;1022371;28;20078;-71
2023/01/12 01:18:26;;;;;;;5.20;1.52;;;;;;;3.59;100.00;96258.84;1030595;28;20041;-70
2023/01/12 01:18:57;;;;;;;5.78;1.63;;;;;;;3.62;100.00;96258.44;1030627;28;20152;-70
2023/01/12 01:19:27;;;;;;;4.25;1.60;;;;;;;3.68;100.00;96257.59;1026772;28;20389;-71
2023/01/12 01:19:58;;;;;;;3.90;1.60;;;;;;;3.66;100.00;96264.03;1030445;28;20096;-71
2023/01/12 01:20:32;;;;;;;5.93;2.08;;;;;;;3.62;100.00;96260.22;1030732;28;20027;-71
2023/01/12 01:21:03;;;;;;;6.40;1.92;;;;;;;3.58;100.00;96261.63;1026893;28;20027;-71
2023/01/12 01:21:33;;;;;;;9.73;1.77;;;;;;;3.61;100.00;96269.81;1023218;28;20271;-69
2023/01/12 01:22:03;;;;;;;2.35;1.30;;;;;;;3.58;100.00;96264.25;1022471;29;20034;-69
2023/01/12 01:22:34;;;;;;;4.40;1.45;;;;;;;3.54;100.00;96264.66;1022631;28;20031;-70
2023/01/12 01:23:05;;;;;;;3.85;1.40;;;;;;;3.59;100.00;96268.41;1025877;28;20070;-70
2023/01/12 01:23:36;;;;;;;7.40;1.70;;;;;;;3.57;100.00;96265.25;1034620;28;20091;-72
2023/01/12 01:24:10;;;;;;;2.00;1.27;;;;;;;3.64;100.00;96263.41;1030458;28;20049;-70
2023/01/12 01:24:41;;;;;;;4.80;1.35;;;;;;;3.69;100.00;96268.78;1027014;28;20041;-70
2023/01/12 01:25:11;;;;;;;4.78;1.55;;;;;;;3.58;100.00;96253.84;1030371;28;20341;-71
2023/01/12 01:25:42;;;;;;;5.00;1.30;;;;;;;3.59;100.00;96266.63;1022494;28;20110;-69
2023/01/12 01:26:14;;;;;;;4.90;1.23;;;;;;;3.59;100.00;96274.44;1026307;28;20030;-70
2023/01/12 01:26:45;;;;;;;6.10;1.67;;;;;;;3.57;100.00;96275.63;1030212;28;20026;-69
2023/01/12 01:27:15;;;;;;;7.55;1.95;;;;;;;3.54;100.00;96269.03;1031412;28;20301;-70
2023/01/12 01:27:46;;;;;;;3.92;1.70;;;;;;;3.52;100.00;96277.03;1034251;28;20053;-72
2023/01/12 01:28:16;;;;;;;4.85;1.45;;;;;;;3.51;100.00;96262.47;1030291;28;20273;-69
2023/01/12 01:28:47;;;;;;;4.07;1.20;;;;;;;3.71;100.00;96266.78;1026393;28;20138;-70
2023/01/12 01:29:17;;;;;;;2.63;1.27;;;;;;;3.71;100.00;96266.78;1025906;28;20748;-70
2023/01/12 01:29:48;;;;;;;5.30;1.50;;;;;;;3.62;100.00;96268.00;1022148;28;20034;-70
2023/01/12 01:30:18;;;;;;;7.13;1.38;;;;;;;3.58;100.00;96269.44;1018490;29;20027;-70
2023/01/12 01:30:49;;;;;;;3.35;1.50;;;;;;;3.58;100.00;96275.41;1014640;29;20039;-69
2023/01/12 01:31:21;;;;;;;6.72;1.70;;;;;;;3.54;100.00;96277.63;1025043;28;20031;-72
2023/01/12 01:31:54;;;;;;;2.92;1.10;;;;;;;3.46;100.00;96262.28;1034771;28;20113;-69
2023/01/12 01:32:24;;;;;;;5.43;1.73;;;;;;;3.50;100.00;96275.66;1031002;28;20265;-68
2023/01/12 01:32:54;;;;;;;4.38;1.60;;;;;;;3.42;100.00;96268.88;1025903;28;20786;-71
2023/01/12 01:33:25;;;;;;;5.95;1.40;;;;;;;3.45;100.00;96268.47;1022526;28;20154;-71
2023/01/12 01:33:55;;;;;;;4.30;1.25;;;;;;;3.45;100.00;96263.25;1026731;28;20038;-70
2023/01/12 01:34:26;;;;;;;6.25;2.13;;;;;;;3.49;100.00;96258.50;1030304;28;20870;-69
2023/01/12 01:34:56;;;;;;;5.15;1.42;;;;;;;3.41;100.00;96256.91;1034661;28;20029;-70
2023/01/12 01:35:27;;;;;;;3.10;1.20;;;;;;;3.53;100.00;96262.25;1026868;28;20042;-72
2023/01/12 01:35:57;;;;;;;5.90;1.45;;;;;;;3.50;100.00;96258.28;1026331;28;20044;-70
2023/01/12 01:36:28;;;;;;;8.48;1.70;;;;;;;3.47;100.00;96255.28;1026584;28;20023;-70
2023/01/12 01:36:59;;;;;;;5.70;1.77;;;;;;;3.51;100.00;96259.84;1030599;28;20034;-69
2023/01/12 01:37:30;;;;;;;3.50;1.58;;;;;;;3.51;100.00;96253.88;1034194;28;20025;-70
2023/01/12 01:38:00;;;;;;;2.38;1.52;;;;;;;3.55;100.00;96252.47;1034740;28;20033;-69
2023/01/12 01:38:31;;;;;;;4.90;1.30;;;;;;;3.46;100.00;96249.31;1030037;28;20348;-71
2023/01/12 01:39:02;;;;;;;5.00;1.20;;;;;;;3.45;100.00;96255.47;1030489;28;20109;-69
2023/01/12 01:39:32;;;;;;;3.25;1.40;;;;;;;3.40;100.00;96255.31;1030819;28;20030;-69
2023/01/12 01:40:03;;;;;;;2.72;1.40;;;;;;;3.48;100.00;96257.69;1026503;28;20046;-69
2023/01/12 01:40:33;;;;;;;3.25;1.20;;;;;;;3.43;100.00;96257.50;1034100;28;20488;-72
2023/01/12 01:41:04;;;;;;;5.05;1.27;;;;;;;3.46;100.00;96249.31;1034427;28;20072;-70
2023/01/12 01:41:35;;;;;;;7.35;1.30;;;;;;;3.40;100.00;96254.53;1034779;28;20783;-70
2023/01/12 01:42:26;;;;;;;5.22;1.65;;;;;;;3.38;100.00;96241.75;1034532;28;20288;-72
2023/01/12 01:42:56;;;;;;;5.10;1.30;;;;;;;3.38;100.00;96249.53;1030352;28;20046;-68
2023/01/12 01:43:27;;;;;;;1.67;1.08;;;;;;;3.36;100.00;96256.72;1026346;28;20042;-68
2023/01/12 01:44:02;;;;;;;3.53;1.42;;;;;;;3.37;100.00;96247.94;1026224;28;20022;-72
2023/01/12 01:44:32;;;;;;;4.95;1.92;;;;;;;3.40;100.00;96255.31;1025693;28;20102;-70
2023/01/12 01:45:03;;;;;;;7.50;1.42;;;;;;;3.37;100.00;96250.53;1026372;28;20768;-69
2023/01/12 01:45:34;;;;;;;7.38;1.58;;;;;;;3.34;100.00;96239.78;1026073;28;20385;-70
2023/01/12 01:46:10;;;;;;;3.03;1.48;;;;;;;3.37;100.00;96255.72;1026285;28;20014;-69
2023/01/12 01:46:49;;;;;;;5.28;1.60;;;;;;;3.27;100.00;96247.56;1018664;29;20069;-72
2023/01/12 01:47:28;;;;;;;4.68;1.95;;;;;;;3.24;100.00;96245.38;1021888;29;20266;-74
2023/01/12 01:47:59;;;;;;;6.50;1.60;;;;;;;3.20;100.00;96242.41;1022463;29;20745;-69
2023/01/12 01:48:31;;;;;;;2.65;1.63;;;;;;;3.22;100.00;96252.56;1018701;29;20263;-70
2023/01/12 01:49:24;;;;;;;6.88;1.75;;;;;;;3.25;100.00;96252.16;1026632;28;20293;-71
2023/01/12 01:49:55;;;;;;;2.53;1.40;;;;;;;3.20;100.00;96244.19;1030340;28;20786;-70
2023/01/12 01:50:31;;;;;;;4.45;1.20;;;;;;;3.20;100.00;96251.97;1015242;29;20731;-69
2023/01/12 01:51:05;;;;;;;5.55;3.15;;;;;;;3.16;100.00;96248.22;1030469;28;20297;-72
2023/01/12 01:51:39;;;;;;;7.25;1.38;;;;;;;3.23;100.00;96249.00;1034658;28;20265;-69
2023/01/12 01:52:17;;;;;;;3.60;1.55;;;;;;;3.16;100.00;96246.41;1031036;28;20290;-72
2023/01/12 01:52:50;;;;;;;5.13;1.20;;;;;;;3.12;100.00;96250.41;1030489;28;20303;-71
2023/01/12 01:53:21;;;;;;;2.70;1.30;;;;;;;3.15;100.00;96256.97;1026689;28;20274;-70
2023/01/12 01:53:52;;;;;;;5.78;1.25;;;;;;;3.15;100.00;96249.97;1023113;28;20270;-71
2023/01/12 01:54:22;;;;;;;5.88;1.55;;;;;;;3.16;100.00;96255.97;1022477;28;20267;-72
2023/01/12 01:55:06;;;;;;;9.95;1.42;;;;;;;3.26;100.00;96262.34;1014303;29;20637;-69
2023/01/12 01:55:48;;;;;;;7.97;1.58;;;;;;;3.21;100.00;96250.97;1015666;29;20028;-70
2023/01/12 01:56:24;;;;;;;5.38;1.48;;;;;;;3.16;100.00;96248.22;1022053;29;20310;-70
2023/01/12 01:56:54;;;;;;;7.28;1.52;;;;;;;3.20;100.00;96259.75;1022566;29;20282;-70
2023/01/12 01:57:27;;;;;;;7.45;1.60;;;;;;;3.24;100.00;96250.56;1016658;29;20809;-70
2023/01/12 01:58:02;;;;;;;3.90;1.00;;;;;;;3.20;100.00;96249.38;1022280;29;20512;-73
2023/01/12 01:58:40;;;;;;;3.10;1.17;;;;;;;2.96;100.00;96212.75;1026526;28;20866;-69
2023/01/12 01:59:16;;;;;;;7.57;1.33;;;;;;;3.33;100.00;96249.34;1034162;28;20812;-69
2023/01/12 01:59:55;;;;;;;5.75;1.48;;;;;;;3.30;100.00;96250.56;1022764;29;20279;-69
2023/01/12 02:00:26;;;;;;;7.25;1.40;;;;;;;3.28;100.00;96246.56;1026402;28;20254;-73
2023/01/12 02:00:56;;;;;;;5.65;1.13;;;;;;;3.18;100.00;96238.41;1028026;28;20309;-68
2023/01/12 02:01:27;;;;;;;3.15;1.17;;;;;;;3.31;100.00;96248.75;1030523;28;20126;-72
2023/01/12 02:01:57;;;;;;;3.50;1.23;;;;;;;3.30;100.00;96234.19;1022446;29;20027;-71
2023/01/12 02:02:28;;;;;;;6.28;1.40;;;;;;;3.29;100.00;96254.16;1026275;28;20126;-73
2023/01/12 02:02:58;;;;;;;1.50;0.80;;;;;;;3.29;100.00;96243.00;1026400;28;20161;-69
2023/01/12 02:03:29;;;;;;;3.30;1.27;;;;;;;3.27;100.00;96237.19;1026689;28;20030;-69
2023/01/12 02:03:59;;;;;;;7.65;1.25;;;;;;;3.26;100.00;96238.22;1026481;28;20133;-70
2023/01/12 02:04:30;;;;;;;3.95;1.40;;;;;;;3.34;100.00;96244.97;1022491;29;20584;-74
2023/01/12 02:05:00;;;;;;;8.90;1.08;;;;;;;3.31;100.00;96230.59;1022451;29;20090;-69
2023/01/12 02:05:31;;;;;;;3.38;1.30;;;;;;;3.31;100.00;96240.97;1022287;28;20027;-70
2023/01/12 02:06:01;;;;;;;7.85;1.30;;;;;;;3.34;100.00;96245.75;1021282;28;20108;-69
2023/01/12 02:06:32;;;;;;;5.65;2.40;;;;;;;3.33;100.00;96238.97;1026800;28;20038;-68
2023/01/12 02:07:04;;;;;;;2.83;1.10;;;;;;;3.42;100.00;96248.13;1022352;29;20030;-71
2023/01/12 02:07:35;;;;;;;4.47;1.13;;;;;;;3.36;100.00;96238.56;1022513;28;20023;-69
2023/01/12 02:08:32;;;;;;;9.38;1.48;;;;;;;3.33;100.00;96238.97;1026844;28;20373;-69
2023/01/12 02:09:29;;;;;;;3.85;1.45;;;;;;;3.41;100.00;96236.16;1021701;29;20264;-70
2023/01/12 02:10:00;;;;;;;4.65;1.67;;;;;;;3.44;100.00;96230.56;1025810;28;20313;-70
2023/01/12 02:10:31;;;;;;;7.55;1.08;;;;;;;3.46;100.00;96233.75;1022371;29;20262;-70
2023/01/12 02:11:01;;;;;;;5.97;0.90;;;;;;;3.45;100.00;96229.53;1024377;28;20263;-69
2023/01/12 02:16:21;;;;;;;7.85;1.33;;;;;;;3.43;100.00;96235.97;1025254;28;20276;-70
2023/01/12 02:16:56;;;;;;;8.48;1.48;;;;;;;3.41;100.00;96236.16;1027101;28;20062;-70
2023/01/12 02:17:35;;;;;;;3.13;0.85;;;;;;;3.40;100.00;96228.59;1030558;28;20257;-70
2023/01/12 02:18:15;;;;;;;6.05;0.80;;;;;;;3.44;100.00;96243.53;1030488;28;20372;-69
2023/01/12 02:19:26;;;;;;;3.60;1.10;;;;;;;3.45;100.00;96236.53;1026703;28;20304;-69
2023/01/12 02:19:59;;;;;;;6.22;2.17;;;;;;;3.40;100.00;96229.38;1028970;28;20253;-69
2023/01/12 02:20:30;;;;;;;5.90;1.10;;;;;;;3.38;100.00;96231.38;1034040;28;20049;-69
2023/01/12 02:21:18;;;;;;;6.25;1.15;;;;;;;3.45;100.00;96229.53;1038507;28;20267;-70
2023/01/12 02:22:07;;;;;;;6.72;1.35;;;;;;;3.42;100.00;96231.75;1037371;28;20660;-73
2023/01/12 02:22:58;;;;;;;7.00;1.25;;;;;;;3.40;100.00;96236.38;1034202;28;20265;-68
2023/01/12 02:23:50;;;;;;;3.92;1.00;;;;;;;3.41;100.00;96241.34;1030224;28;20317;-68
2023/01/12 02:24:34;;;;;;;2.40;0.85;;;;;;;3.44;100.00;96232.34;1032964;28;20300;-69
2023/01/12 02:25:27;;;;;;;3.42;0.80;;;;;;;3.49;100.00;96238.53;1031606;28;21105;-69
2023/01/12 02:26:16;;;;;;;4.75;1.50;;;;;;;3.48;100.00;96230.94;1030626;28;20261;-72
2023/01/12 02:27:11;;;;;;;5.40;1.10;;;;;;;3.42;100.00;96231.75;1032485;28;20262;-70
2023/01/12 02:28:15;;;;;;;3.92;1.20;;;;;;;3.38;100.00;96233.16;1034998;28;20264;-69
2023/01/12 02:29:14;;;;;;;7.03;1.52;;;;;;;3.36;100.00;96238.56;1035665;28;20252;-67
2023/01/12 02:30:21;;;;;;;6.55;1.15;;;;;;;3.30;100.00;96245.38;1037173;28;20263;-70
2023/01/12 02:31:28;;;;;;;3.47;1.17;;;;;;;3.38;100.00;96235.75;1034860;28;20272;-67
2023/01/12 02:32:37;;;;;;;4.53;1.40;;;;;;;3.35;100.00;96242.16;1030711;28;20320;-72
2023/01/12 02:33:32;;;;;;;2.60;1.25;;;;;;;3.36;100.00;96241.16;1036853;28;20367;-68
2023/01/12 02:34:30;;;;;;;7.35;1.17;;;;;;;3.42;100.00;96242.13;1028409;28;20897;-70
2023/01/12 02:35:21;;;;;;;6.07;1.13;;;;;;;3.33;100.00;96227.81;1030883;28;20691;-70
2023/01/12 02:36:16;;;;;;;6.60;1.48;;;;;;;3.42;100.00;96240.34;1026703;28;20267;-65
2023/01/12 02:37:26;;;;;;;1.88;1.00;;;;;;;3.39;100.00;96240.75;1030751;28;20778;-69
2023/01/12 02:38:15;;;;;;;4.75;1.15;;;;;;;3.36;100.00;96238.56;1023043;29;20270;-70
2023/01/12 02:38:55;;;;;;;2.65;1.05;;;;;;;3.28;100.00;96242.16;1025043;28;20271;-69
2023/01/12 02:39:26;;;;;;;2.20;0.93;;;;;;;3.30;100.00;96240.19;1021725;29;20275;-70
2023/01/12 02:40:10;;;;;;;4.13;1.65;;;;;;;3.30;100.00;96239.38;1026439;28;20034;-72
2023/01/12 02:40:45;;;;;;;6.47;1.85;;;;;;;3.26;100.00;96243.41;1019293;29;20040;-70
2023/01/12 02:42:46;;;;;;;5.35;1.63;;;;;;;3.28;100.00;96246.56;1017002;29;20678;-69
2023/01/12 02:43:29;;;;;;;7.85;1.10;;;;;;;3.24;100.00;96235.00;1030637;28;20308;-70
2023/01/12 02:43:59;;;;;;;9.95;1.20;;;;;;;3.26;100.00;96238.22;1024935;28;20369;-69
2023/01/12 02:44:45;;;;;;;11.52;2.03;;;;;;;3.32;100.00;96237.41;1014947;29;20678;-69
2023/01/12 02:45:24;;;;;;;4.47;1.00;;;;;;;3.32;100.00;96242.59;1022948;28;20031;-68
2023/01/12 02:46:20;;;;;;;7.35;1.20;;;;;;;3.36;100.00;96241.16;1026011;28;20286;-69
2023/01/12 02:46:51;;;;;;;9.98;1.73;;;;;;;3.33;100.00;96236.38;1028523;28;20929;-67
2023/01/12 02:47:45;;;;;;;5.95;1.30;;;;;;;3.38;100.00;96233.97;1031029;28;20312;-70
2023/01/12 02:48:24;;;;;;;7.75;1.00;;;;;;;3.31;100.00;96225.41;1031852;28;20022;-69
2023/01/12 02:49:08;;;;;;;3.90;1.20;;;;;;;3.34;100.00;96237.97;1022442;28;20341;-69
2023/01/12 02:49:50;;;;;;;2.83;1.02;;;;;;;3.34;100.00;96240.56;1033147;28;20269;-68
2023/01/12 02:50:40;;;;;;;5.90;1.05;;;;;;;3.35;100.00;96228.38;1027943;28;20273;-68
2023/01/12 02:51:20;;;;;;;4.10;0.90;;;;;;;3.41;100.00;96238.75;1031802;28;20273;-68
2023/01/12 02:51:59;;;;;;;2.78;1.10;;;;;;;3.37;100.00;96227.19;1027905;28;20042;-68
2023/01/12 02:52:32;;;;;;;8.45;1.30;;;;;;;3.40;100.00;96229.38;1027199;28;20081;-69